Adin, California
Current Conditions -  °F | °C
As of 6:55 PM on Saturday 22 Nov 2014 (Local Time) from KAAT Reporting Station
Clear Clear  
Wind Chill: -3°   Ceiling: Unl
Heat Index:   Visibility: 10mi
Dew Point: -2°   Wind: 14mph
Humidity: 76%   Direction: 300°WNW
Pressure: 30.16"   Gusts: NA
Location:  41.19°N, 120.95°W
Report Text: KAAT 230255Z AUTO 30012KT 10SM CLR 02/M02 A3016 RMK AO2 SLP219 T00221017 53028
Loading
Personal Weather Stations






























Interactive Weather Map New forecast layout! Learn more

10-Day Weather Forecast

Advertisements
Track Severe Weather on mobile